sensor_id;sensor_type;location;lat;lon;timestamp;temperature;humidity
24426;DHT22;12611;44.446;26.000;2022-08-01T00:01:32;24.60;83.70
24426;DHT22;12611;44.446;26.000;2022-08-01T00:04:00;24.60;83.70
24426;DHT22;12611;44.446;26.000;2022-08-01T00:06:29;24.60;83.60
24426;DHT22;12611;44.446;26.000;2022-08-01T00:08:57;24.60;83.60
24426;DHT22;12611;44.446;26.000;2022-08-01T00:11:25;24.60;83.70
24426;DHT22;12611;44.446;26.000;2022-08-01T00:13:54;24.50;83.70
24426;DHT22;12611;44.446;26.000;2022-08-01T00:16:22;24.50;83.90
24426;DHT22;12611;44.446;26.000;2022-08-01T00:18:52;24.50;83.90
24426;DHT22;12611;44.446;26.000;2022-08-01T00:21:21;24.50;83.90
24426;DHT22;12611;44.446;26.000;2022-08-01T00:23:49;24.50;83.90
24426;DHT22;12611;44.446;26.000;2022-08-01T00:26:18;24.50;84.00
24426;DHT22;12611;44.446;26.000;2022-08-01T00:28:46;24.40;83.90
24426;DHT22;12611;44.446;26.000;2022-08-01T00:31:15;24.50;84.10
24426;DHT22;12611;44.446;26.000;2022-08-01T00:33:43;24.50;84.00
24426;DHT22;12611;44.446;26.000;2022-08-01T00:36:13;24.50;84.00
24426;DHT22;12611;44.446;26.000;2022-08-01T00:38:41;24.50;83.90
24426;DHT22;12611;44.446;26.000;2022-08-01T00:41:10;24.50;84.00
24426;DHT22;12611;44.446;26.000;2022-08-01T00:43:41;24.40;84.00
24426;DHT22;12611;44.446;26.000;2022-08-01T00:46:09;24.50;84.10
24426;DHT22;12611;44.446;26.000;2022-08-01T00:48:37;24.50;84.20
24426;DHT22;12611;44.446;26.000;2022-08-01T00:51:07;24.50;84.20
24426;DHT22;12611;44.446;26.000;2022-08-01T00:53:38;24.50;84.30
24426;DHT22;12611;44.446;26.000;2022-08-01T00:56:19;24.50;84.40
24426;DHT22;12611;44.446;26.000;2022-08-01T00:58:48;24.50;84.50
24426;DHT22;12611;44.446;26.000;2022-08-01T01:01:17;24.50;84.50
24426;DHT22;12611;44.446;26.000;2022-08-01T01:03:48;24.50;84.50
24426;DHT22;12611;44.446;26.000;2022-08-01T01:06:29;24.50;84.80
24426;DHT22;12611;44.446;26.000;2022-08-01T01:09:09;24.50;84.90
24426;DHT22;12611;44.446;26.000;2022-08-01T01:11:45;24.50;84.90
24426;DHT22;12611;44.446;26.000;2022-08-01T01:14:23;24.50;84.90
24426;DHT22;12611;44.446;26.000;2022-08-01T01:16:54;24.50;85.00
24426;DHT22;12611;44.446;26.000;2022-08-01T01:19:30;24.50;84.90
24426;DHT22;12611;44.446;26.000;2022-08-01T01:22:16;24.50;85.00
24426;DHT22;12611;44.446;26.000;2022-08-01T01:25:02;24.50;85.10
24426;DHT22;12611;44.446;26.000;2022-08-01T01:27:42;24.50;85.10
24426;DHT22;12611;44.446;26.000;2022-08-01T01:30:15;24.50;85.10
24426;DHT22;12611;44.446;26.000;2022-08-01T01:32:45;24.50;85.10
24426;DHT22;12611;44.446;26.000;2022-08-01T01:35:19;24.50;85.20
24426;DHT22;12611;44.446;26.000;2022-08-01T01:37:53;24.50;85.40
24426;DHT22;12611;44.446;26.000;2022-08-01T01:40:24;24.50;85.50
24426;DHT22;12611;44.446;26.000;2022-08-01T01:42:55;24.50;86.20
24426;DHT22;12611;44.446;26.000;2022-08-01T01:45:26;24.50;86.90
24426;DHT22;12611;44.446;26.000;2022-08-01T01:47:56;24.40;88.30
24426;DHT22;12611;44.446;26.000;2022-08-01T01:50:27;24.40;87.60
24426;DHT22;12611;44.446;26.000;2022-08-01T01:52:57;24.40;87.80
24426;DHT22;12611;44.446;26.000;2022-08-01T01:55:28;24.40;88.00
24426;DHT22;12611;44.446;26.000;2022-08-01T01:57:58;24.40;88.20
24426;DHT22;12611;44.446;26.000;2022-08-01T02:00:29;24.30;88.00
24426;DHT22;12611;44.446;26.000;2022-08-01T02:02:59;24.30;88.20
24426;DHT22;12611;44.446;26.000;2022-08-01T02:05:30;24.30;88.30
24426;DHT22;12611;44.446;26.000;2022-08-01T02:08:01;24.30;88.50
24426;DHT22;12611;44.446;26.000;2022-08-01T02:10:32;24.30;88.50
24426;DHT22;12611;44.446;26.000;2022-08-01T02:13:03;24.20;88.50
24426;DHT22;12611;44.446;26.000;2022-08-01T02:15:36;24.20;89.00
24426;DHT22;12611;44.446;26.000;2022-08-01T02:18:25;24.20;89.10
24426;DHT22;12611;44.446;26.000;2022-08-01T02:20:54;24.10;89.40
24426;DHT22;12611;44.446;26.000;2022-08-01T02:23:24;24.10;89.40
24426;DHT22;12611;44.446;26.000;2022-08-01T02:25:56;24.10;89.30
24426;DHT22;12611;44.446;26.000;2022-08-01T02:28:42;24.00;89.30
24426;DHT22;12611;44.446;26.000;2022-08-01T02:31:15;24.00;89.60
24426;DHT22;12611;44.446;26.000;2022-08-01T02:33:50;24.00;89.40
24426;DHT22;12611;44.446;26.000;2022-08-01T02:36:20;24.00;89.60
24426;DHT22;12611;44.446;26.000;2022-08-01T02:39:00;24.00;89.50
24426;DHT22;12611;44.446;26.000;2022-08-01T02:41:30;24.00;89.40
24426;DHT22;12611;44.446;26.000;2022-08-01T02:44:04;24.00;89.40
24426;DHT22;12611;44.446;26.000;2022-08-01T02:46:38;24.00;89.60
24426;DHT22;12611;44.446;26.000;2022-08-01T02:49:09;24.00;89.90
24426;DHT22;12611;44.446;26.000;2022-08-01T02:51:39;24.00;89.90
24426;DHT22;12611;44.446;26.000;2022-08-01T02:54:10;23.90;89.70
24426;DHT22;12611;44.446;26.000;2022-08-01T02:56:40;23.90;89.90
24426;DHT22;12611;44.446;26.000;2022-08-01T02:59:12;23.90;90.00
24426;DHT22;12611;44.446;26.000;2022-08-01T03:01:44;23.90;89.90
24426;DHT22;12611;44.446;26.000;2022-08-01T03:04:14;23.90;89.70
24426;DHT22;12611;44.446;26.000;2022-08-01T03:06:44;23.80;89.40
24426;DHT22;12611;44.446;26.000;2022-08-01T03:09:14;23.80;89.30
24426;DHT22;12611;44.446;26.000;2022-08-01T03:11:45;23.70;89.30
24426;DHT22;12611;44.446;26.000;2022-08-01T03:14:14;23.70;89.10
24426;DHT22;12611;44.446;26.000;2022-08-01T03:16:46;23.70;89.10
24426;DHT22;12611;44.446;26.000;2022-08-01T03:19:15;23.70;89.10
24426;DHT22;12611;44.446;26.000;2022-08-01T03:21:48;23.60;89.00
24426;DHT22;12611;44.446;26.000;2022-08-01T03:24:17;23.60;89.00
24426;DHT22;12611;44.446;26.000;2022-08-01T03:26:47;23.60;88.90
24426;DHT22;12611;44.446;26.000;2022-08-01T03:29:21;23.60;88.80
24426;DHT22;12611;44.446;26.000;2022-08-01T03:31:53;23.60;88.80
24426;DHT22;12611;44.446;26.000;2022-08-01T03:34:22;23.60;88.70
24426;DHT22;12611;44.446;26.000;2022-08-01T03:36:56;23.60;88.50
24426;DHT22;12611;44.446;26.000;2022-08-01T03:39:31;23.50;88.40
24426;DHT22;12611;44.446;26.000;2022-08-01T03:42:07;23.50;88.30
24426;DHT22;12611;44.446;26.000;2022-08-01T03:44:38;23.50;88.00
24426;DHT22;12611;44.446;26.000;2022-08-01T03:47:13;23.50;87.70
24426;DHT22;12611;44.446;26.000;2022-08-01T03:49:44;23.50;88.10
24426;DHT22;12611;44.446;26.000;2022-08-01T03:52:14;23.50;86.80
24426;DHT22;12611;44.446;26.000;2022-08-01T03:54:47;23.50;86.60
24426;DHT22;12611;44.446;26.000;2022-08-01T03:57:18;23.50;86.50
24426;DHT22;12611;44.446;26.000;2022-08-01T04:00:05;23.50;87.30
24426;DHT22;12611;44.446;26.000;2022-08-01T04:02:37;23.50;86.10
24426;DHT22;12611;44.446;26.000;2022-08-01T04:05:07;23.50;85.80
24426;DHT22;12611;44.446;26.000;2022-08-01T04:07:35;23.50;85.60
24426;DHT22;12611;44.446;26.000;2022-08-01T04:10:06;23.50;85.00
24426;DHT22;12611;44.446;26.000;2022-08-01T04:12:35;23.40;84.00
24426;DHT22;12611;44.446;26.000;2022-08-01T04:15:05;23.40;83.10
24426;DHT22;12611;44.446;26.000;2022-08-01T04:17:33;23.30;82.70
24426;DHT22;12611;44.446;26.000;2022-08-01T04:20:04;23.30;82.20
24426;DHT22;12611;44.446;26.000;2022-08-01T04:22:33;23.20;81.60
24426;DHT22;12611;44.446;26.000;2022-08-01T04:25:09;23.20;81.70
24426;DHT22;12611;44.446;26.000;2022-08-01T04:27:41;23.20;81.40
24426;DHT22;12611;44.446;26.000;2022-08-01T04:30:20;23.20;81.10
24426;DHT22;12611;44.446;26.000;2022-08-01T04:32:49;23.20;80.40
24426;DHT22;12611;44.446;26.000;2022-08-01T04:35:21;23.20;80.40
24426;DHT22;12611;44.446;26.000;2022-08-01T04:38:13;23.20;80.00
24426;DHT22;12611;44.446;26.000;2022-08-01T04:40:45;23.20;79.50
24426;DHT22;12611;44.446;26.000;2022-08-01T04:43:14;23.20;79.30
24426;DHT22;12611;44.446;26.000;2022-08-01T04:45:47;23.20;78.90
24426;DHT22;12611;44.446;26.000;2022-08-01T04:48:17;23.20;78.90
24426;DHT22;12611;44.446;26.000;2022-08-01T04:50:50;23.20;79.50
24426;DHT22;12611;44.446;26.000;2022-08-01T04:53:19;23.20;78.30
24426;DHT22;12611;44.446;26.000;2022-08-01T04:55:49;23.20;78.30
24426;DHT22;12611;44.446;26.000;2022-08-01T04:58:18;23.20;77.90
24426;DHT22;12611;44.446;26.000;2022-08-01T05:00:46;23.20;77.80
24426;DHT22;12611;44.446;26.000;2022-08-01T05:03:15;23.30;78.00
24426;DHT22;12611;44.446;26.000;2022-08-01T05:05:43;23.30;78.10
24426;DHT22;12611;44.446;26.000;2022-08-01T05:08:13;23.40;78.10
24426;DHT22;12611;44.446;26.000;2022-08-01T05:10:43;23.40;78.00
24426;DHT22;12611;44.446;26.000;2022-08-01T05:13:11;23.40;78.00
24426;DHT22;12611;44.446;26.000;2022-08-01T05:15:40;23.40;78.10
24426;DHT22;12611;44.446;26.000;2022-08-01T05:18:08;23.50;78.30
24426;DHT22;12611;44.446;26.000;2022-08-01T05:20:37;23.50;78.30
24426;DHT22;12611;44.446;26.000;2022-08-01T05:23:05;23.60;78.30
24426;DHT22;12611;44.446;26.000;2022-08-01T05:25:47;23.60;78.30
24426;DHT22;12611;44.446;26.000;2022-08-01T05:28:24;23.70;78.30
24426;DHT22;12611;44.446;26.000;2022-08-01T05:30:53;23.80;78.40
24426;DHT22;12611;44.446;26.000;2022-08-01T05:33:23;23.80;78.40
24426;DHT22;12611;44.446;26.000;2022-08-01T05:35:51;23.90;78.40
24426;DHT22;12611;44.446;26.000;2022-08-01T05:38:20;24.00;78.60
24426;DHT22;12611;44.446;26.000;2022-08-01T05:40:50;24.00;78.70
24426;DHT22;12611;44.446;26.000;2022-08-01T05:43:18;24.10;78.70
24426;DHT22;12611;44.446;26.000;2022-08-01T05:45:52;24.20;78.90
24426;DHT22;12611;44.446;26.000;2022-08-01T05:48:21;24.30;79.20
24426;DHT22;12611;44.446;26.000;2022-08-01T05:50:49;24.30;79.40
24426;DHT22;12611;44.446;26.000;2022-08-01T05:53:24;24.40;79.70
24426;DHT22;12611;44.446;26.000;2022-08-01T05:55:54;24.40;80.00
24426;DHT22;12611;44.446;26.000;2022-08-01T05:58:22;24.50;80.20
24426;DHT22;12611;44.446;26.000;2022-08-01T06:00:51;24.50;80.40
24426;DHT22;12611;44.446;26.000;2022-08-01T06:03:19;24.60;80.70
24426;DHT22;12611;44.446;26.000;2022-08-01T06:05:48;24.70;81.20
24426;DHT22;12611;44.446;26.000;2022-08-01T06:08:16;24.80;81.30
24426;DHT22;12611;44.446;26.000;2022-08-01T06:10:45;24.80;81.50
24426;DHT22;12611;44.446;26.000;2022-08-01T06:13:14;24.90;81.70
24426;DHT22;12611;44.446;26.000;2022-08-01T06:15:43;25.00;83.00
24426;DHT22;12611;44.446;26.000;2022-08-01T06:18:11;25.10;82.60
24426;DHT22;12611;44.446;26.000;2022-08-01T06:20:40;25.20;82.50
24426;DHT22;12611;44.446;26.000;2022-08-01T06:23:09;25.20;82.70
24426;DHT22;12611;44.446;26.000;2022-08-01T06:25:57;25.30;82.60
24426;DHT22;12611;44.446;26.000;2022-08-01T06:28:28;25.40;82.70
24426;DHT22;12611;44.446;26.000;2022-08-01T06:30:56;25.40;82.60
24426;DHT22;12611;44.446;26.000;2022-08-01T06:33:27;25.50;81.70
24426;DHT22;12611;44.446;26.000;2022-08-01T06:35:55;25.60;81.50
24426;DHT22;12611;44.446;26.000;2022-08-01T06:38:24;25.70;81.40
24426;DHT22;12611;44.446;26.000;2022-08-01T06:40:54;25.80;80.80
24426;DHT22;12611;44.446;26.000;2022-08-01T06:43:22;25.90;80.10
24426;DHT22;12611;44.446;26.000;2022-08-01T06:45:52;25.90;79.80
24426;DHT22;12611;44.446;26.000;2022-08-01T06:48:20;26.00;79.60
24426;DHT22;12611;44.446;26.000;2022-08-01T06:50:49;26.00;78.60
24426;DHT22;12611;44.446;26.000;2022-08-01T06:53:35;26.00;78.20
24426;DHT22;12611;44.446;26.000;2022-08-01T06:56:05;26.10;77.90
24426;DHT22;12611;44.446;26.000;2022-08-01T06:58:35;26.10;76.70
24426;DHT22;12611;44.446;26.000;2022-08-01T07:01:06;26.20;76.10
24426;DHT22;12611;44.446;26.000;2022-08-01T07:03:35;26.30;74.90
24426;DHT22;12611;44.446;26.000;2022-08-01T07:06:21;26.30;73.70
24426;DHT22;12611;44.446;26.000;2022-08-01T07:08:50;26.40;72.10
24426;DHT22;12611;44.446;26.000;2022-08-01T07:11:18;26.40;70.30
24426;DHT22;12611;44.446;26.000;2022-08-01T07:13:47;26.40;70.40
24426;DHT22;12611;44.446;26.000;2022-08-01T07:16:19;26.50;69.70
24426;DHT22;12611;44.446;26.000;2022-08-01T07:18:48;26.50;70.30
24426;DHT22;12611;44.446;26.000;2022-08-01T07:21:17;26.60;70.00
24426;DHT22;12611;44.446;26.000;2022-08-01T07:24:06;26.60;70.00
24426;DHT22;12611;44.446;26.000;2022-08-01T07:26:41;26.70;70.50
24426;DHT22;12611;44.446;26.000;2022-08-01T07:29:20;26.80;70.20
24426;DHT22;12611;44.446;26.000;2022-08-01T07:31:50;26.90;69.30
24426;DHT22;12611;44.446;26.000;2022-08-01T07:34:20;26.90;68.80
24426;DHT22;12611;44.446;26.000;2022-08-01T07:36:49;27.00;68.90
24426;DHT22;12611;44.446;26.000;2022-08-01T07:39:17;27.00;67.90
24426;DHT22;12611;44.446;26.000;2022-08-01T07:41:46;27.10;67.10
24426;DHT22;12611;44.446;26.000;2022-08-01T07:44:33;27.10;67.00
24426;DHT22;12611;44.446;26.000;2022-08-01T07:47:04;27.10;67.30
24426;DHT22;12611;44.446;26.000;2022-08-01T07:49:33;27.20;67.30
24426;DHT22;12611;44.446;26.000;2022-08-01T07:52:06;27.20;67.30
24426;DHT22;12611;44.446;26.000;2022-08-01T07:54:35;27.30;66.80
24426;DHT22;12611;44.446;26.000;2022-08-01T07:57:04;27.30;65.80
24426;DHT22;12611;44.446;26.000;2022-08-01T07:59:33;27.40;66.30
24426;DHT22;12611;44.446;26.000;2022-08-01T08:02:02;27.40;66.20
24426;DHT22;12611;44.446;26.000;2022-08-01T08:04:32;27.50;66.10
24426;DHT22;12611;44.446;26.000;2022-08-01T08:07:00;27.50;66.00
24426;DHT22;12611;44.446;26.000;2022-08-01T08:09:29;27.60;65.90
24426;DHT22;12611;44.446;26.000;2022-08-01T08:12:04;27.60;64.60
24426;DHT22;12611;44.446;26.000;2022-08-01T08:14:33;27.60;64.70
24426;DHT22;12611;44.446;26.000;2022-08-01T08:17:04;27.70;65.00
24426;DHT22;12611;44.446;26.000;2022-08-01T08:19:33;27.80;65.20
24426;DHT22;12611;44.446;26.000;2022-08-01T08:22:05;27.80;65.50
24426;DHT22;12611;44.446;26.000;2022-08-01T08:24:35;27.90;65.40
24426;DHT22;12611;44.446;26.000;2022-08-01T08:27:12;28.00;65.20
24426;DHT22;12611;44.446;26.000;2022-08-01T08:29:41;28.10;65.10
24426;DHT22;12611;44.446;26.000;2022-08-01T08:32:12;28.20;63.80
24426;DHT22;12611;44.446;26.000;2022-08-01T08:34:41;28.20;63.80
24426;DHT22;12611;44.446;26.000;2022-08-01T08:37:10;28.30;64.20
24426;DHT22;12611;44.446;26.000;2022-08-01T08:39:38;28.30;63.90
24426;DHT22;12611;44.446;26.000;2022-08-01T08:42:09;28.40;63.80
24426;DHT22;12611;44.446;26.000;2022-08-01T08:44:38;28.40;63.70
24426;DHT22;12611;44.446;26.000;2022-08-01T08:47:13;28.40;63.10
24426;DHT22;12611;44.446;26.000;2022-08-01T08:49:47;28.40;63.10
24426;DHT22;12611;44.446;26.000;2022-08-01T08:52:17;28.40;63.30
24426;DHT22;12611;44.446;26.000;2022-08-01T08:54:47;28.50;63.40
24426;DHT22;12611;44.446;26.000;2022-08-01T08:57:17;28.40;63.20
24426;DHT22;12611;44.446;26.000;2022-08-01T08:59:47;28.40;63.30
24426;DHT22;12611;44.446;26.000;2022-08-01T09:02:20;28.40;62.90
24426;DHT22;12611;44.446;26.000;2022-08-01T09:04:49;28.50;63.00
24426;DHT22;12611;44.446;26.000;2022-08-01T09:07:18;28.50;62.90
24426;DHT22;12611;44.446;26.000;2022-08-01T09:09:46;28.50;63.10
24426;DHT22;12611;44.446;26.000;2022-08-01T09:12:17;28.60;63.30
24426;DHT22;12611;44.446;26.000;2022-08-01T09:14:47;28.70;63.60
24426;DHT22;12611;44.446;26.000;2022-08-01T09:17:17;28.70;63.10
24426;DHT22;12611;44.446;26.000;2022-08-01T09:19:49;28.70;62.80
24426;DHT22;12611;44.446;26.000;2022-08-01T09:22:21;28.70;63.00
24426;DHT22;12611;44.446;26.000;2022-08-01T09:25:02;28.80;63.10
24426;DHT22;12611;44.446;26.000;2022-08-01T09:27:33;28.90;63.20
24426;DHT22;12611;44.446;26.000;2022-08-01T09:30:09;29.00;62.90
24426;DHT22;12611;44.446;26.000;2022-08-01T09:32:53;29.00;62.70
24426;DHT22;12611;44.446;26.000;2022-08-01T09:35:26;28.90;62.50
24426;DHT22;12611;44.446;26.000;2022-08-01T09:38:16;28.90;62.70
24426;DHT22;12611;44.446;26.000;2022-08-01T09:40:47;28.90;62.90
24426;DHT22;12611;44.446;26.000;2022-08-01T09:43:16;28.80;63.00
24426;DHT22;12611;44.446;26.000;2022-08-01T09:45:45;28.70;62.70
24426;DHT22;12611;44.446;26.000;2022-08-01T09:48:19;28.70;62.90
24426;DHT22;12611;44.446;26.000;2022-08-01T09:50:57;28.60;63.30
24426;DHT22;12611;44.446;26.000;2022-08-01T09:53:44;28.60;63.30
24426;DHT22;12611;44.446;26.000;2022-08-01T09:56:19;28.60;63.70
24426;DHT22;12611;44.446;26.000;2022-08-01T09:58:50;28.60;64.10
24426;DHT22;12611;44.446;26.000;2022-08-01T10:01:27;28.70;64.20
24426;DHT22;12611;44.446;26.000;2022-08-01T10:04:06;28.70;64.00
24426;DHT22;12611;44.446;26.000;2022-08-01T10:06:38;28.70;64.80
24426;DHT22;12611;44.446;26.000;2022-08-01T10:09:09;28.80;64.10
24426;DHT22;12611;44.446;26.000;2022-08-01T10:11:37;28.80;64.10
24426;DHT22;12611;44.446;26.000;2022-08-01T10:14:07;28.80;63.70
24426;DHT22;12611;44.446;26.000;2022-08-01T10:16:36;28.90;63.60
24426;DHT22;12611;44.446;26.000;2022-08-01T10:19:06;29.00;63.90
24426;DHT22;12611;44.446;26.000;2022-08-01T10:21:43;29.00;63.10
24426;DHT22;12611;44.446;26.000;2022-08-01T10:24:26;29.10;63.30
24426;DHT22;12611;44.446;26.000;2022-08-01T10:26:57;29.10;63.10
24426;DHT22;12611;44.446;26.000;2022-08-01T10:29:37;29.10;62.60
24426;DHT22;12611;44.446;26.000;2022-08-01T10:32:28;29.20;62.70
24426;DHT22;12611;44.446;26.000;2022-08-01T10:34:57;29.30;62.20
24426;DHT22;12611;44.446;26.000;2022-08-01T10:37:35;29.30;61.80
24426;DHT22;12611;44.446;26.000;2022-08-01T10:40:18;29.30;61.90
24426;DHT22;12611;44.446;26.000;2022-08-01T10:43:03;29.30;62.10
24426;DHT22;12611;44.446;26.000;2022-08-01T10:45:31;29.40;62.00
24426;DHT22;12611;44.446;26.000;2022-08-01T10:48:04;29.40;62.00
24426;DHT22;12611;44.446;26.000;2022-08-01T10:50:40;29.50;61.80
24426;DHT22;12611;44.446;26.000;2022-08-01T10:53:16;29.50;61.50
24426;DHT22;12611;44.446;26.000;2022-08-01T10:55:59;29.60;61.50
24426;DHT22;12611;44.446;26.000;2022-08-01T10:58:30;29.70;61.70
24426;DHT22;12611;44.446;26.000;2022-08-01T11:01:16;29.70;61.30
24426;DHT22;12611;44.446;26.000;2022-08-01T11:03:58;29.80;61.30
24426;DHT22;12611;44.446;26.000;2022-08-01T11:06:42;29.90;60.80
24426;DHT22;12611;44.446;26.000;2022-08-01T11:09:26;30.00;60.30
24426;DHT22;12611;44.446;26.000;2022-08-01T11:12:06;30.00;60.00
24426;DHT22;12611;44.446;26.000;2022-08-01T11:15:19;30.10;59.90
24426;DHT22;12611;44.446;26.000;2022-08-01T11:17:58;30.10;59.40
24426;DHT22;12611;44.446;26.000;2022-08-01T11:20:29;30.20;59.30
24426;DHT22;12611;44.446;26.000;2022-08-01T11:23:28;30.20;59.20
24426;DHT22;12611;44.446;26.000;2022-08-01T11:26:21;30.10;58.20
24426;DHT22;12611;44.446;26.000;2022-08-01T11:29:16;30.10;58.00
24426;DHT22;12611;44.446;26.000;2022-08-01T11:31:48;30.10;58.00
24426;DHT22;12611;44.446;26.000;2022-08-01T11:34:17;30.00;58.00
24426;DHT22;12611;44.446;26.000;2022-08-01T11:36:47;30.10;58.10
24426;DHT22;12611;44.446;26.000;2022-08-01T11:39:29;30.20;57.90
24426;DHT22;12611;44.446;26.000;2022-08-01T11:42:19;30.20;58.00
24426;DHT22;12611;44.446;26.000;2022-08-01T11:44:49;30.30;58.20
24426;DHT22;12611;44.446;26.000;2022-08-01T11:47:18;30.30;58.20
24426;DHT22;12611;44.446;26.000;2022-08-01T11:50:33;30.40;58.20
24426;DHT22;12611;44.446;26.000;2022-08-01T11:53:04;30.50;57.90
24426;DHT22;12611;44.446;26.000;2022-08-01T11:55:33;30.50;58.10
24426;DHT22;12611;44.446;26.000;2022-08-01T11:58:05;30.50;57.40
24426;DHT22;12611;44.446;26.000;2022-08-01T12:00:54;30.50;56.90
24426;DHT22;12611;44.446;26.000;2022-08-01T12:03:26;30.50;56.60
24426;DHT22;12611;44.446;26.000;2022-08-01T12:05:59;30.40;56.10
24426;DHT22;12611;44.446;26.000;2022-08-01T12:08:30;30.40;56.00
24426;DHT22;12611;44.446;26.000;2022-08-01T12:11:00;30.40;56.20
24426;DHT22;12611;44.446;26.000;2022-08-01T12:13:41;30.30;56.40
24426;DHT22;12611;44.446;26.000;2022-08-01T12:16:10;30.30;56.50
24426;DHT22;12611;44.446;26.000;2022-08-01T12:18:40;30.30;56.30
24426;DHT22;12611;44.446;26.000;2022-08-01T12:21:09;30.30;56.40
24426;DHT22;12611;44.446;26.000;2022-08-01T12:23:37;30.30;56.30
24426;DHT22;12611;44.446;26.000;2022-08-01T12:26:06;30.20;56.30
24426;DHT22;12611;44.446;26.000;2022-08-01T12:28:56;30.20;56.40
24426;DHT22;12611;44.446;26.000;2022-08-01T12:31:31;30.30;56.20
24426;DHT22;12611;44.446;26.000;2022-08-01T12:34:26;30.30;56.00
24426;DHT22;12611;44.446;26.000;2022-08-01T12:36:57;30.30;56.20
24426;DHT22;12611;44.446;26.000;2022-08-01T12:39:31;30.30;56.20
24426;DHT22;12611;44.446;26.000;2022-08-01T12:42:00;30.30;56.10
24426;DHT22;12611;44.446;26.000;2022-08-01T12:44:30;30.50;55.40
24426;DHT22;12611;44.446;26.000;2022-08-01T12:47:00;30.60;55.70
24426;DHT22;12611;44.446;26.000;2022-08-01T12:49:29;30.70;55.70
24426;DHT22;12611;44.446;26.000;2022-08-01T12:51:58;30.90;55.00
24426;DHT22;12611;44.446;26.000;2022-08-01T12:54:27;31.00;55.20
24426;DHT22;12611;44.446;26.000;2022-08-01T12:56:56;31.00;54.60
24426;DHT22;12611;44.446;26.000;2022-08-01T12:59:26;31.20;54.30
24426;DHT22;12611;44.446;26.000;2022-08-01T13:02:07;31.30;54.20
24426;DHT22;12611;44.446;26.000;2022-08-01T13:04:49;31.30;53.00
24426;DHT22;12611;44.446;26.000;2022-08-01T13:07:18;31.40;51.20
24426;DHT22;12611;44.446;26.000;2022-08-01T13:09:49;31.40;51.70
24426;DHT22;12611;44.446;26.000;2022-08-01T13:12:18;31.40;51.70
24426;DHT22;12611;44.446;26.000;2022-08-01T13:14:47;31.50;51.80
24426;DHT22;12611;44.446;26.000;2022-08-01T13:17:32;31.50;51.20
24426;DHT22;12611;44.446;26.000;2022-08-01T13:20:03;31.50;51.30
24426;DHT22;12611;44.446;26.000;2022-08-01T13:22:32;31.70;51.70
24426;DHT22;12611;44.446;26.000;2022-08-01T13:25:11;31.70;50.40
24426;DHT22;12611;44.446;26.000;2022-08-01T13:27:43;31.70;50.40
24426;DHT22;12611;44.446;26.000;2022-08-01T13:30:20;31.70;50.50
24426;DHT22;12611;44.446;26.000;2022-08-01T13:32:58;31.70;50.40
24426;DHT22;12611;44.446;26.000;2022-08-01T13:35:27;31.70;50.00
24426;DHT22;12611;44.446;26.000;2022-08-01T13:37:56;31.70;49.90
24426;DHT22;12611;44.446;26.000;2022-08-01T13:40:26;31.80;49.70
24426;DHT22;12611;44.446;26.000;2022-08-01T13:42:54;31.80;49.90
24426;DHT22;12611;44.446;26.000;2022-08-01T13:45:23;31.90;50.00
24426;DHT22;12611;44.446;26.000;2022-08-01T13:47:52;31.90;49.50
24426;DHT22;12611;44.446;26.000;2022-08-01T13:50:40;31.90;49.20
24426;DHT22;12611;44.446;26.000;2022-08-01T13:53:09;31.90;48.80
24426;DHT22;12611;44.446;26.000;2022-08-01T13:55:37;31.90;48.50
24426;DHT22;12611;44.446;26.000;2022-08-01T13:58:06;32.00;48.40
24426;DHT22;12611;44.446;26.000;2022-08-01T14:00:34;32.00;48.10
24426;DHT22;12611;44.446;26.000;2022-08-01T14:03:03;32.00;47.60
24426;DHT22;12611;44.446;26.000;2022-08-01T14:05:32;32.00;47.70
24426;DHT22;12611;44.446;26.000;2022-08-01T14:08:02;32.10;47.80
24426;DHT22;12611;44.446;26.000;2022-08-01T14:10:31;32.10;48.10
24426;DHT22;12611;44.446;26.000;2022-08-01T14:13:03;32.10;47.20
24426;DHT22;12611;44.446;26.000;2022-08-01T14:15:37;32.10;46.90
24426;DHT22;12611;44.446;26.000;2022-08-01T14:18:06;32.00;46.80
24426;DHT22;12611;44.446;26.000;2022-08-01T14:20:36;31.90;46.30
24426;DHT22;12611;44.446;26.000;2022-08-01T14:23:06;31.90;46.60
24426;DHT22;12611;44.446;26.000;2022-08-01T14:25:36;31.90;47.10
24426;DHT22;12611;44.446;26.000;2022-08-01T14:28:24;31.80;47.10
24426;DHT22;12611;44.446;26.000;2022-08-01T14:30:55;31.80;47.30
24426;DHT22;12611;44.446;26.000;2022-08-01T14:33:23;31.70;47.40
24426;DHT22;12611;44.446;26.000;2022-08-01T14:35:52;31.70;47.40
24426;DHT22;12611;44.446;26.000;2022-08-01T14:38:42;31.60;48.00
24426;DHT22;12611;44.446;26.000;2022-08-01T14:41:12;31.50;47.30
24426;DHT22;12611;44.446;26.000;2022-08-01T14:43:41;31.50;47.70
24426;DHT22;12611;44.446;26.000;2022-08-01T14:46:10;31.50;47.70
24426;DHT22;12611;44.446;26.000;2022-08-01T14:48:40;31.50;47.90
24426;DHT22;12611;44.446;26.000;2022-08-01T14:51:08;31.40;47.80
24426;DHT22;12611;44.446;26.000;2022-08-01T14:53:37;31.40;48.10
24426;DHT22;12611;44.446;26.000;2022-08-01T14:56:18;31.50;47.90
24426;DHT22;12611;44.446;26.000;2022-08-01T14:58:46;31.40;48.10
24426;DHT22;12611;44.446;26.000;2022-08-01T15:01:15;31.50;48.10
24426;DHT22;12611;44.446;26.000;2022-08-01T15:03:44;31.50;48.80
24426;DHT22;12611;44.446;26.000;2022-08-01T15:06:14;31.50;49.50
24426;DHT22;12611;44.446;26.000;2022-08-01T15:08:43;31.50;49.90
24426;DHT22;12611;44.446;26.000;2022-08-01T15:11:17;31.60;50.40
24426;DHT22;12611;44.446;26.000;2022-08-01T15:13:46;31.60;50.60
24426;DHT22;12611;44.446;26.000;2022-08-01T15:16:36;31.70;50.90
24426;DHT22;12611;44.446;26.000;2022-08-01T15:19:04;31.70;51.00
24426;DHT22;12611;44.446;26.000;2022-08-01T15:21:33;31.70;50.70
24426;DHT22;12611;44.446;26.000;2022-08-01T15:24:08;31.70;50.50
24426;DHT22;12611;44.446;26.000;2022-08-01T15:26:38;31.70;50.80
24426;DHT22;12611;44.446;26.000;2022-08-01T15:29:07;31.60;50.50
24426;DHT22;12611;44.446;26.000;2022-08-01T15:31:35;31.60;50.80
24426;DHT22;12611;44.446;26.000;2022-08-01T15:34:05;31.60;51.00
24426;DHT22;12611;44.446;26.000;2022-08-01T15:36:33;31.60;50.70
24426;DHT22;12611;44.446;26.000;2022-08-01T15:39:01;31.50;50.20
24426;DHT22;12611;44.446;26.000;2022-08-01T15:41:30;31.50;50.40
24426;DHT22;12611;44.446;26.000;2022-08-01T15:44:00;31.50;50.40
24426;DHT22;12611;44.446;26.000;2022-08-01T15:46:28;31.50;50.50
24426;DHT22;12611;44.446;26.000;2022-08-01T15:48:57;31.90;50.40